Time;durP1;ratioP1;P1;durP2;ratioP2;P2;SDS_P1;SDS_P2;PMS_P1;PMS_P2;Temp;Humidity;BMP_temperature;BMP_pressure;BME280_temperature;BME280_humidity;BME280_pressure;Samples;Min_cycle;Max_cycle;Signal;HPM_P1;HPM_P2
2021/09/01 00:01:28;;;;;;;7.88;7.05;;;;;;;;;;5091873;28;20569;-46
2021/09/01 00:03:54;;;;;;;13.00;7.70;;;;;;;;;;5088756;28;20178;-46
2021/09/01 00:06:20;;;;;;;9.82;7.72;;;;;;;;;;5096885;28;20618;-46
2021/09/01 00:08:50;;;;;;;8.02;7.18;;;;;;;;;;5096778;28;20189;-46
2021/09/01 00:11:16;;;;;;;10.23;7.05;;;;;;;;;;5095620;28;20456;-46
2021/09/01 00:13:42;;;;;;;7.18;6.47;;;;;;;;;;5077279;28;20167;-46
2021/09/01 00:16:25;;;;;;;10.32;7.43;;;;;;;;;;5096064;28;20593;-46
2021/09/01 00:18:51;;;;;;;7.47;6.43;;;;;;;;;;5096494;28;20417;-46
2021/09/01 00:21:17;;;;;;;7.38;6.32;;;;;;;;;;5088207;28;20244;-46
2021/09/01 00:23:43;;;;;;;9.52;6.63;;;;;;;;;;5097330;28;20253;-46
2021/09/01 00:26:09;;;;;;;7.18;6.43;;;;;;;;;;5096844;28;20207;-46
2021/09/01 00:28:35;;;;;;;9.30;6.72;;;;;;;;;;5095816;28;20212;-46
2021/09/01 00:31:01;;;;;;;7.47;6.75;;;;;;;;;;5088146;28;20207;-46
2021/09/01 00:33:27;;;;;;;8.00;6.50;;;;;;;;;;5095345;28;20174;-46
2021/09/01 00:35:53;;;;;;;8.57;5.82;;;;;;;;;;5096036;28;20169;-46
2021/09/01 00:38:19;;;;;;;6.80;6.10;;;;;;;;;;5098692;28;20199;-46
2021/09/01 00:40:45;;;;;;;6.80;6.05;;;;;;;;;;5109447;28;20190;-46
2021/09/01 00:43:11;;;;;;;9.15;6.55;;;;;;;;;;5096648;28;20182;-46
2021/09/01 00:45:37;;;;;;;6.72;6.03;;;;;;;;;;5092057;28;20605;-46
2021/09/01 00:48:03;;;;;;;7.35;6.22;;;;;;;;;;5075803;28;20205;-46
2021/09/01 00:50:29;;;;;;;6.10;5.47;;;;;;;;;;5076485;28;20300;-46
2021/09/01 00:52:55;;;;;;;6.65;6.05;;;;;;;;;;5090485;28;20265;-46
2021/09/01 00:55:23;;;;;;;6.45;5.72;;;;;;;;;;5096202;28;20203;-46
2021/09/01 00:57:50;;;;;;;8.30;6.00;;;;;;;;;;5096096;28;20432;-46
2021/09/01 01:00:26;;;;;;;7.03;6.10;;;;;;;;;;5096348;28;20667;-46
2021/09/01 01:02:52;;;;;;;6.82;5.78;;;;;;;;;;5095832;28;20584;-46
2021/09/01 01:05:37;;;;;;;5.90;5.30;;;;;;;;;;5095456;28;20203;-46
2021/09/01 01:08:04;;;;;;;6.53;5.40;;;;;;;;;;5094946;28;20217;-46
2021/09/01 01:10:31;;;;;;;5.80;5.20;;;;;;;;;;5096031;28;20543;-46
2021/09/01 01:12:57;;;;;;;6.32;5.63;;;;;;;;;;5092991;28;20437;-46
2021/09/01 01:15:24;;;;;;;7.53;5.22;;;;;;;;;;5075999;28;20162;-46
2021/09/01 01:17:50;;;;;;;6.97;5.43;;;;;;;;;;5075371;28;20185;-46
2021/09/01 01:20:16;;;;;;;7.95;5.55;;;;;;;;;;5094346;28;20194;-46
2021/09/01 01:22:42;;;;;;;6.68;5.40;;;;;;;;;;5096078;28;20185;-46
2021/09/01 01:25:08;;;;;;;6.50;5.25;;;;;;;;;;5095550;28;20254;-46
2021/09/01 01:27:39;;;;;;;7.32;5.50;;;;;;;;;;5077698;28;20197;-46
2021/09/01 01:30:18;;;;;;;6.13;5.53;;;;;;;;;;5095800;28;20218;-46
2021/09/01 01:32:48;;;;;;;7.35;5.18;;;;;;;;;;5075737;28;20245;-46
2021/09/01 01:35:31;;;;;;;7.63;4.97;;;;;;;;;;5095312;28;20197;-46
2021/09/01 01:37:58;;;;;;;6.45;5.25;;;;;;;;;;5089951;28;20189;-46
2021/09/01 01:40:25;;;;;;;6.13;5.53;;;;;;;;;;5106516;28;20216;-46
2021/09/01 01:42:53;;;;;;;5.43;4.93;;;;;;;;;;5095731;28;20450;-46
2021/09/01 01:45:19;;;;;;;6.07;5.47;;;;;;;;;;5095520;28;20220;-46
2021/09/01 01:47:45;;;;;;;5.80;5.13;;;;;;;;;;5095118;28;20238;-46
2021/09/01 01:50:11;;;;;;;6.00;4.47;;;;;;;;;;5093561;28;20696;-46
2021/09/01 01:52:37;;;;;;;5.25;4.75;;;;;;;;;;5095100;28;20265;-46
2021/09/01 01:55:04;;;;;;;6.70;4.90;;;;;;;;;;5094819;28;20240;-46
2021/09/01 01:57:30;;;;;;;6.78;4.63;;;;;;;;;;5090991;28;20185;-46
2021/09/01 01:59:56;;;;;;;6.18;4.55;;;;;;;;;;5091688;28;20166;-46
2021/09/01 02:02:28;;;;;;;6.20;4.70;;;;;;;;;;5080325;28;20217;-46
2021/09/01 02:04:54;;;;;;;6.07;4.80;;;;;;;;;;5080596;28;20759;-46
2021/09/01 02:07:20;;;;;;;5.00;4.50;;;;;;;;;;5091997;28;20178;-46
2021/09/01 02:09:46;;;;;;;6.68;4.30;;;;;;;;;;5094879;28;20533;-46
2021/09/01 02:12:12;;;;;;;6.63;4.75;;;;;;;;;;5077048;28;20210;-46
2021/09/01 02:14:38;;;;;;;7.32;4.80;;;;;;;;;;5075042;28;20175;-46
2021/09/01 02:17:04;;;;;;;6.10;5.10;;;;;;;;;;5074592;28;20178;-46
2021/09/01 02:19:30;;;;;;;5.78;4.68;;;;;;;;;;5084989;28;20560;-46
2021/09/01 02:21:56;;;;;;;8.07;4.75;;;;;;;;;;5078920;28;20204;-46
2021/09/01 02:24:22;;;;;;;4.93;4.05;;;;;;;;;;5083673;28;20462;-46
2021/09/01 02:26:48;;;;;;;5.00;3.92;;;;;;;;;;5085301;28;20319;-46
2021/09/01 02:29:14;;;;;;;5.93;4.47;;;;;;;;;;5094373;28;20193;-46
2021/09/01 02:31:40;;;;;;;5.20;4.40;;;;;;;;;;5081515;28;20178;-46
2021/09/01 02:34:06;;;;;;;5.55;4.15;;;;;;;;;;5089022;28;20807;-46
2021/09/01 02:36:32;;;;;;;5.65;4.28;;;;;;;;;;5094442;28;20169;-46
2021/09/01 02:38:58;;;;;;;5.07;4.43;;;;;;;;;;5102141;28;20185;-46
2021/09/01 02:41:24;;;;;;;5.88;4.35;;;;;;;;;;5092495;28;20190;-46
2021/09/01 02:43:51;;;;;;;4.70;4.20;;;;;;;;;;5093261;28;20196;-46
2021/09/01 02:46:17;;;;;;;6.10;4.45;;;;;;;;;;5094232;28;20186;-46
2021/09/01 02:48:44;;;;;;;4.45;4.00;;;;;;;;;;5093897;28;20637;-46
2021/09/01 02:51:10;;;;;;;4.43;4.03;;;;;;;;;;5085154;28;20541;-46
2021/09/01 02:53:36;;;;;;;9.75;4.30;;;;;;;;;;5074563;28;20753;-46
2021/09/01 02:56:02;;;;;;;4.75;3.90;;;;;;;;;;5075426;28;20261;-46
2021/09/01 02:58:28;;;;;;;4.45;3.85;;;;;;;;;;5090415;28;20182;-46
2021/09/01 03:00:54;;;;;;;6.22;4.15;;;;;;;;;;5091950;28;20197;-46
2021/09/01 03:03:20;;;;;;;5.35;3.95;;;;;;;;;;5094620;28;20555;-46
2021/09/01 03:05:46;;;;;;;5.00;4.13;;;;;;;;;;5093814;28;20220;-46
2021/09/01 03:08:12;;;;;;;4.22;3.83;;;;;;;;;;5088411;28;20231;-46
2021/09/01 03:10:39;;;;;;;4.85;3.53;;;;;;;;;;5089527;28;20260;-46
2021/09/01 03:13:05;;;;;;;4.25;3.80;;;;;;;;;;5074233;28;20208;-46
2021/09/01 03:15:32;;;;;;;6.13;3.83;;;;;;;;;;5083408;28;20174;-46
2021/09/01 03:17:58;;;;;;;7.45;4.07;;;;;;;;;;5093873;28;20582;-46
2021/09/01 03:20:24;;;;;;;7.38;3.97;;;;;;;;;;5092418;28;20186;-46
2021/09/01 03:22:50;;;;;;;5.30;3.40;;;;;;;;;;5076940;28;20177;-46
2021/09/01 03:25:16;;;;;;;4.93;3.72;;;;;;;;;;5092525;28;20261;-46
2021/09/01 03:27:42;;;;;;;4.20;3.75;;;;;;;;;;5073396;28;20251;-46
2021/09/01 03:30:09;;;;;;;4.00;3.30;;;;;;;;;;5088442;28;20223;-46
2021/09/01 03:32:35;;;;;;;4.38;3.63;;;;;;;;;;5089845;28;20175;-46
2021/09/01 03:35:01;;;;;;;4.28;3.88;;;;;;;;;;5089388;28;20364;-46
2021/09/01 03:37:27;;;;;;;5.60;3.80;;;;;;;;;;5077148;28;20467;-46
2021/09/01 03:39:53;;;;;;;4.57;3.50;;;;;;;;;;5101960;28;20177;-46
2021/09/01 03:42:19;;;;;;;5.75;3.75;;;;;;;;;;5103202;28;20197;-46
2021/09/01 03:44:45;;;;;;;7.10;4.10;;;;;;;;;;5093779;28;20627;-46
2021/09/01 03:47:11;;;;;;;5.68;3.58;;;;;;;;;;5093654;28;20182;-46
2021/09/01 03:49:37;;;;;;;3.92;3.53;;;;;;;;;;5081890;28;20205;-46
2021/09/01 03:52:03;;;;;;;3.75;3.40;;;;;;;;;;5073949;28;20179;-46
2021/09/01 03:54:29;;;;;;;3.85;3.33;;;;;;;;;;5074055;28;20200;-46
2021/09/01 03:56:55;;;;;;;5.15;3.38;;;;;;;;;;5090763;28;20253;-46
2021/09/01 03:59:21;;;;;;;5.72;3.78;;;;;;;;;;5074493;28;20224;-46
2021/09/01 04:01:47;;;;;;;4.65;3.28;;;;;;;;;;5077094;28;20202;-46
2021/09/01 04:04:13;;;;;;;4.05;3.25;;;;;;;;;;5093919;28;20419;-46
2021/09/01 04:06:39;;;;;;;3.97;3.35;;;;;;;;;;5080614;28;20533;-46
2021/09/01 04:09:05;;;;;;;5.47;3.97;;;;;;;;;;5085051;28;20258;-46
2021/09/01 04:11:31;;;;;;;3.95;3.30;;;;;;;;;;5091066;28;20752;-46
2021/09/01 04:13:57;;;;;;;4.20;3.30;;;;;;;;;;5075362;28;20183;-46
2021/09/01 04:16:23;;;;;;;4.85;3.58;;;;;;;;;;5077153;28;20220;-46
2021/09/01 04:18:49;;;;;;;6.13;3.90;;;;;;;;;;5094532;28;20439;-46
2021/09/01 04:21:15;;;;;;;3.67;3.35;;;;;;;;;;5097220;28;20177;-46
2021/09/01 04:23:41;;;;;;;5.32;3.50;;;;;;;;;;5097182;28;20186;-46
2021/09/01 04:26:07;;;;;;;4.15;3.33;;;;;;;;;;5097150;28;20590;-46
2021/09/01 04:28:33;;;;;;;5.38;3.40;;;;;;;;;;5096480;28;20596;-46
2021/09/01 04:30:59;;;;;;;4.55;3.22;;;;;;;;;;5089025;28;20182;-46
2021/09/01 04:33:25;;;;;;;4.88;3.47;;;;;;;;;;5076842;28;20170;-46
2021/09/01 04:35:52;;;;;;;4.63;3.10;;;;;;;;;;5095078;28;20598;-46
2021/09/01 04:38:18;;;;;;;6.20;3.38;;;;;;;;;;5099472;28;20181;-46
2021/09/01 04:40:44;;;;;;;5.60;3.50;;;;;;;;;;5100096;28;20204;-46
2021/09/01 04:43:09;;;;;;;5.35;3.92;;;;;;;;;;5093120;28;20177;-46
2021/09/01 04:45:35;;;;;;;6.90;3.65;;;;;;;;;;5095605;28;20469;-46
2021/09/01 04:48:01;;;;;;;5.65;3.92;;;;;;;;;;5095694;28;20197;-46
2021/09/01 04:50:27;;;;;;;6.10;4.25;;;;;;;;;;5095554;28;20483;-46
2021/09/01 04:52:53;;;;;;;4.82;3.58;;;;;;;;;;5096604;28;20181;-46
2021/09/01 04:55:19;;;;;;;5.25;3.38;;;;;;;;;;5094222;28;20239;-46
2021/09/01 04:57:45;;;;;;;4.50;3.70;;;;;;;;;;5077042;28;20546;-46
2021/09/01 05:00:12;;;;;;;4.78;3.60;;;;;;;;;;5093655;28;20201;-46
2021/09/01 05:02:39;;;;;;;5.85;3.75;;;;;;;;;;5077013;28;20193;-46
2021/09/01 05:05:06;;;;;;;5.45;4.22;;;;;;;;;;5094795;28;20189;-46
2021/09/01 05:07:32;;;;;;;5.88;3.70;;;;;;;;;;5074052;28;20205;-46
2021/09/01 05:09:58;;;;;;;4.95;3.70;;;;;;;;;;5090916;28;20174;-46
2021/09/01 05:12:27;;;;;;;4.35;3.45;;;;;;;;;;5078469;28;20170;-46
2021/09/01 05:14:56;;;;;;;5.13;3.97;;;;;;;;;;5081126;28;20206;-46
2021/09/01 05:17:23;;;;;;;6.20;3.90;;;;;;;;;;5080090;28;20182;-46
2021/09/01 05:19:49;;;;;;;6.63;3.70;;;;;;;;;;5075963;28;20261;-46
2021/09/01 05:22:19;;;;;;;4.28;3.65;;;;;;;;;;5090160;28;20227;-46
2021/09/01 05:24:58;;;;;;;7.95;4.20;;;;;;;;;;5095874;28;20533;-46
2021/09/01 05:27:25;;;;;;;8.95;4.13;;;;;;;;;;5076386;28;20247;-46
2021/09/01 05:29:52;;;;;;;4.60;3.65;;;;;;;;;;5091089;28;20213;-46
2021/09/01 05:32:18;;;;;;;7.03;4.40;;;;;;;;;;5093653;28;20173;-46
2021/09/01 05:34:44;;;;;;;5.13;3.80;;;;;;;;;;5084467;28;20178;-46
2021/09/01 05:37:12;;;;;;;6.90;4.25;;;;;;;;;;5094655;28;20199;-46
2021/09/01 05:39:40;;;;;;;5.80;4.13;;;;;;;;;;5102113;28;20173;-46
2021/09/01 05:42:07;;;;;;;6.15;4.10;;;;;;;;;;5087880;28;20243;-46
2021/09/01 05:44:33;;;;;;;8.75;4.53;;;;;;;;;;5095637;28;20186;-46
2021/09/01 05:46:59;;;;;;;6.72;4.13;;;;;;;;;;5095008;28;20169;-46
2021/09/01 05:49:25;;;;;;;4.78;3.28;;;;;;;;;;5095288;28;20445;-46
2021/09/01 05:51:51;;;;;;;6.53;4.50;;;;;;;;;;5095076;28;20191;-46
2021/09/01 05:54:17;;;;;;;9.88;4.38;;;;;;;;;;5095666;28;20244;-46
2021/09/01 05:56:45;;;;;;;5.18;4.35;;;;;;;;;;5095361;28;20281;-46
2021/09/01 05:59:14;;;;;;;8.73;4.53;;;;;;;;;;5076478;28;20305;-46
2021/09/01 06:01:42;;;;;;;5.57;4.50;;;;;;;;;;5075456;28;20182;-46
2021/09/01 06:04:09;;;;;;;6.78;4.38;;;;;;;;;;5088695;28;20264;-46
2021/09/01 06:06:37;;;;;;;8.25;4.43;;;;;;;;;;5095611;28;20771;-46
2021/09/01 06:09:03;;;;;;;5.90;4.57;;;;;;;;;;5094035;28;20202;-46
2021/09/01 06:11:30;;;;;;;5.85;4.65;;;;;;;;;;5080049;28;20213;-46
2021/09/01 06:13:59;;;;;;;8.02;4.43;;;;;;;;;;5074951;28;20178;-46
2021/09/01 06:16:25;;;;;;;6.38;4.45;;;;;;;;;;5074930;28;20546;-46
2021/09/01 06:18:51;;;;;;;4.80;4.30;;;;;;;;;;5093722;28;20196;-46
2021/09/01 06:21:17;;;;;;;6.70;4.25;;;;;;;;;;5095228;28;20162;-46
2021/09/01 06:23:44;;;;;;;8.00;5.05;;;;;;;;;;5080080;28;20174;-46
2021/09/01 06:26:11;;;;;;;8.98;5.15;;;;;;;;;;5075855;28;20193;-46
2021/09/01 06:28:37;;;;;;;4.93;4.40;;;;;;;;;;5074273;28;20301;-46
2021/09/01 06:31:03;;;;;;;6.13;4.53;;;;;;;;;;5079054;28;20238;-46
2021/09/01 06:33:30;;;;;;;7.97;4.50;;;;;;;;;;5082049;28;20442;-46
2021/09/01 06:35:56;;;;;;;6.28;4.75;;;;;;;;;;5074191;28;20189;-46
2021/09/01 06:38:22;;;;;;;5.85;4.75;;;;;;;;;;5084493;28;20196;-46
2021/09/01 06:40:47;;;;;;;9.50;5.07;;;;;;;;;;5102096;28;20193;-46
2021/09/01 06:43:14;;;;;;;5.05;4.32;;;;;;;;;;5092727;28;20231;-46
2021/09/01 06:45:41;;;;;;;5.93;4.65;;;;;;;;;;5094589;28;20174;-46
2021/09/01 06:48:07;;;;;;;5.00;4.47;;;;;;;;;;5093970;28;20197;-46
2021/09/01 06:50:33;;;;;;;6.32;4.40;;;;;;;;;;5094645;28;20166;-46
2021/09/01 06:52:59;;;;;;;6.55;4.38;;;;;;;;;;5086260;28;20423;-46
2021/09/01 06:55:25;;;;;;;6.20;4.22;;;;;;;;;;5074403;28;20186;-46
2021/09/01 06:57:51;;;;;;;6.43;4.55;;;;;;;;;;5075262;28;20174;-46
2021/09/01 07:00:18;;;;;;;6.15;5.03;;;;;;;;;;5076004;28;20237;-46
2021/09/01 07:02:45;;;;;;;6.43;4.85;;;;;;;;;;5094113;28;20192;-46
2021/09/01 07:05:12;;;;;;;5.60;4.70;;;;;;;;;;5094501;28;20181;-46
2021/09/01 07:07:38;;;;;;;6.65;4.60;;;;;;;;;;5081806;28;20550;-46
2021/09/01 07:10:04;;;;;;;5.68;4.72;;;;;;;;;;5081894;28;20173;-46
2021/09/01 07:12:31;;;;;;;6.38;4.90;;;;;;;;;;5089930;28;20273;-46
2021/09/01 07:14:57;;;;;;;6.00;4.90;;;;;;;;;;5074370;28;20163;-46
2021/09/01 07:17:23;;;;;;;6.50;5.20;;;;;;;;;;5076298;28;20170;-46
2021/09/01 07:19:49;;;;;;;6.47;5.22;;;;;;;;;;5094008;28;20618;-46
2021/09/01 07:22:15;;;;;;;6.60;4.95;;;;;;;;;;5092123;28;20170;-46
2021/09/01 07:24:40;;;;;;;5.55;4.80;;;;;;;;;;5074229;28;20201;-46
2021/09/01 07:27:06;;;;;;;5.05;4.55;;;;;;;;;;5075377;28;20174;-46
2021/09/01 07:29:33;;;;;;;7.80;4.53;;;;;;;;;;5093849;28;20213;-46
2021/09/01 07:31:59;;;;;;;9.95;5.00;;;;;;;;;;5094323;28;20537;-46
2021/09/01 07:34:25;;;;;;;8.05;5.50;;;;;;;;;;5093847;28;20173;-46
2021/09/01 07:36:51;;;;;;;8.07;5.22;;;;;;;;;;5094212;28;20170;-46
2021/09/01 07:39:17;;;;;;;8.68;5.50;;;;;;;;;;5101147;28;20471;-46
2021/09/01 07:41:43;;;;;;;8.15;4.97;;;;;;;;;;5103395;28;20201;-46
2021/09/01 07:44:09;;;;;;;7.07;5.20;;;;;;;;;;5076125;28;20179;-46
2021/09/01 07:46:35;;;;;;;7.93;5.75;;;;;;;;;;5074108;28;20166;-46
2021/09/01 07:49:01;;;;;;;7.45;5.55;;;;;;;;;;5076184;28;20617;-46
2021/09/01 07:51:28;;;;;;;6.90;5.97;;;;;;;;;;5085473;28;20318;-46
2021/09/01 07:53:54;;;;;;;9.50;6.80;;;;;;;;;;5080146;28;20179;-46
2021/09/01 07:56:20;;;;;;;8.55;6.70;;;;;;;;;;5086149;28;20176;-46
2021/09/01 07:58:46;;;;;;;10.90;7.25;;;;;;;;;;5077870;28;20202;-46
2021/09/01 08:01:12;;;;;;;10.13;6.90;;;;;;;;;;5095044;28;20185;-46
2021/09/01 08:03:38;;;;;;;9.23;7.03;;;;;;;;;;5083291;28;20269;-46
2021/09/01 08:06:06;;;;;;;10.38;7.82;;;;;;;;;;5077387;28;20173;-46
2021/09/01 08:08:32;;;;;;;8.50;7.32;;;;;;;;;;5090558;28;20236;-46
2021/09/01 08:10:59;;;;;;;11.60;7.60;;;;;;;;;;5097618;28;20197;-46
2021/09/01 08:13:25;;;;;;;9.80;7.13;;;;;;;;;;5085417;28;20554;-47
2021/09/01 08:15:51;;;;;;;11.48;7.45;;;;;;;;;;5077293;28;20199;-46
2021/09/01 08:18:17;;;;;;;12.18;7.88;;;;;;;;;;5076359;28;20272;-46
2021/09/01 08:20:43;;;;;;;10.93;8.40;;;;;;;;;;5077242;28;20224;-46
2021/09/01 08:23:09;;;;;;;10.35;8.40;;;;;;;;;;5089693;28;20549;-46
2021/09/01 08:25:35;;;;;;;10.77;8.57;;;;;;;;;;5096817;28;20197;-46
2021/09/01 08:28:01;;;;;;;10.27;8.40;;;;;;;;;;5096437;28;20202;-46
2021/09/01 08:30:27;;;;;;;10.45;8.10;;;;;;;;;;5097351;28;20243;-46
2021/09/01 08:32:53;;;;;;;9.98;8.40;;;;;;;;;;5089323;28;20491;-46
2021/09/01 08:35:19;;;;;;;11.27;8.30;;;;;;;;;;5077052;28;20167;-46
2021/09/01 08:37:48;;;;;;;10.30;8.63;;;;;;;;;;5082080;28;20447;-46
2021/09/01 08:40:14;;;;;;;11.65;8.15;;;;;;;;;;5107564;28;20178;-46
2021/09/01 08:42:43;;;;;;;11.32;8.60;;;;;;;;;;5097854;28;20182;-46
2021/09/01 08:45:09;;;;;;;10.88;9.10;;;;;;;;;;5076794;28;20558;-46
2021/09/01 08:47:36;;;;;;;9.88;7.90;;;;;;;;;;5086090;28;20241;-46
2021/09/01 08:50:04;;;;;;;11.35;8.43;;;;;;;;;;5096851;28;20177;-46
2021/09/01 08:52:30;;;;;;;10.48;7.78;;;;;;;;;;5095237;28;20181;-46
2021/09/01 08:54:56;;;;;;;11.45;8.02;;;;;;;;;;5096672;28;20185;-46
2021/09/01 08:57:22;;;;;;;10.10;8.25;;;;;;;;;;5095320;28;20210;-46
2021/09/01 08:59:48;;;;;;;9.60;7.93;;;;;;;;;;5095743;28;20186;-47
2021/09/01 09:02:14;;;;;;;9.38;7.95;;;;;;;;;;5096426;28;20173;-47
2021/09/01 09:04:40;;;;;;;9.77;7.88;;;;;;;;;;5096673;28;20169;-47
2021/09/01 09:07:07;;;;;;;9.75;7.90;;;;;;;;;;5094999;28;20689;-46
2021/09/01 09:09:41;;;;;;;11.48;8.05;;;;;;;;;;5077466;28;20601;-47
2021/09/01 09:12:09;;;;;;;10.57;7.95;;;;;;;;;;5089764;28;20557;-46
2021/09/01 09:14:39;;;;;;;8.73;7.70;;;;;;;;;;5082322;28;20273;-46
2021/09/01 09:17:07;;;;;;;11.55;7.43;;;;;;;;;;5095206;28;20533;-46
2021/09/01 09:19:52;;;;;;;15.85;8.05;;;;;;;;;;5076106;28;20472;-46
2021/09/01 09:22:19;;;;;;;7.65;6.85;;;;;;;;;;5091895;28;20182;-46
2021/09/01 09:25:00;;;;;;;11.27;7.57;;;;;;;;;;5075961;28;20171;-46
2021/09/01 09:27:36;;;;;;;8.70;7.68;;;;;;;;;;5082515;28;20173;-46
2021/09/01 09:30:02;;;;;;;8.13;6.97;;;;;;;;;;5096008;28;20347;-46
2021/09/01 09:32:28;;;;;;;8.60;7.00;;;;;;;;;;5092089;28;20175;-46
2021/09/01 09:34:58;;;;;;;9.52;7.22;;;;;;;;;;5075808;28;20182;-46
2021/09/01 09:37:24;;;;;;;10.43;7.07;;;;;;;;;;5085661;28;20243;-46
2021/09/01 09:39:52;;;;;;;7.82;6.00;;;;;;;;;;5104134;28;20182;-46
2021/09/01 09:42:35;;;;;;;7.90;6.57;;;;;;;;;;5099481;28;20771;-46
2021/09/01 09:45:21;;;;;;;9.20;6.35;;;;;;;;;;5095717;28;20209;-46
2021/09/01 09:47:47;;;;;;;7.72;6.93;;;;;;;;;;5092887;28;20197;-46
2021/09/01 09:50:14;;;;;;;9.88;6.90;;;;;;;;;;5079743;28;20182;-46
2021/09/01 09:52:40;;;;;;;7.75;6.35;;;;;;;;;;5076557;28;20182;-47
2021/09/01 09:55:10;;;;;;;7.03;5.90;;;;;;;;;;5080412;28;20230;-47
2021/09/01 09:57:45;;;;;;;7.63;5.55;;;;;;;;;;5094372;28;20280;-46
2021/09/01 10:00:11;;;;;;;7.63;5.68;;;;;;;;;;5094984;28;20647;-46
2021/09/01 10:02:38;;;;;;;7.93;6.20;;;;;;;;;;5094401;28;20564;-46
2021/09/01 10:05:05;;;;;;;9.07;6.57;;;;;;;;;;5095526;28;20537;-46
2021/09/01 10:07:31;;;;;;;8.77;6.88;;;;;;;;;;5094906;28;20213;-46
2021/09/01 10:09:57;;;;;;;8.40;6.20;;;;;;;;;;5095123;28;20601;-46
2021/09/01 10:12:25;;;;;;;7.75;5.95;;;;;;;;;;5090939;28;20185;-47
2021/09/01 10:14:52;;;;;;;6.47;5.68;;;;;;;;;;5074919;28;20158;-46
2021/09/01 10:17:20;;;;;;;8.38;6.43;;;;;;;;;;5079791;28;20178;-46
2021/09/01 10:19:47;;;;;;;7.20;6.25;;;;;;;;;;5094830;28;20208;-46
2021/09/01 10:22:13;;;;;;;6.05;5.28;;;;;;;;;;5093176;28;20245;-46
2021/09/01 10:24:42;;;;;;;7.05;5.70;;;;;;;;;;5074895;28;20522;-46
2021/09/01 10:27:10;;;;;;;7.03;6.20;;;;;;;;;;5074586;28;20586;-46
2021/09/01 10:29:39;;;;;;;7.28;6.13;;;;;;;;;;5074304;28;20194;-46
2021/09/01 10:32:25;;;;;;;7.80;6.30;;;;;;;;;;5075388;28;20249;-46
2021/09/01 10:35:10;;;;;;;7.63;6.07;;;;;;;;;;5074569;28;20171;-46
2021/09/01 10:37:40;;;;;;;9.10;6.00;;;;;;;;;;5079330;28;20185;-46
2021/09/01 10:40:08;;;;;;;7.18;5.90;;;;;;;;;;5103599;28;20174;-46
2021/09/01 10:42:36;;;;;;;7.22;5.72;;;;;;;;;;5097449;28;20464;-46
2021/09/01 10:45:03;;;;;;;8.88;7.03;;;;;;;;;;5075773;28;20588;-46
2021/09/01 10:47:49;;;;;;;8.73;6.47;;;;;;;;;;5091828;28;20251;-46
2021/09/01 10:50:15;;;;;;;6.60;6.00;;;;;;;;;;5085107;28;20189;-46
2021/09/01 10:52:57;;;;;;;8.38;6.95;;;;;;;;;;5074898;28;20204;-46
2021/09/01 10:55:23;;;;;;;8.50;7.07;;;;;;;;;;5075535;28;20169;-46
2021/09/01 10:58:08;;;;;;;7.00;6.22;;;;;;;;;;5073860;28;20171;-47
2021/09/01 11:00:40;;;;;;;8.18;6.43;;;;;;;;;;5076841;28;20225;-46
2021/09/01 11:03:06;;;;;;;7.75;6.40;;;;;;;;;;5085145;28;20545;-46
2021/09/01 11:05:32;;;;;;;7.68;6.35;;;;;;;;;;5074477;28;20258;-47
2021/09/01 11:07:58;;;;;;;8.65;6.82;;;;;;;;;;5081688;28;20205;-46
2021/09/01 11:10:26;;;;;;;7.55;6.75;;;;;;;;;;5094470;28;20524;-46
2021/09/01 11:13:00;;;;;;;7.85;6.57;;;;;;;;;;5094095;28;20205;-46
2021/09/01 11:15:26;;;;;;;7.10;6.38;;;;;;;;;;5084840;28;20435;-46
2021/09/01 11:18:04;;;;;;;7.15;6.45;;;;;;;;;;5093865;28;20185;-46
2021/09/01 11:20:30;;;;;;;8.15;7.20;;;;;;;;;;5094613;28;20173;-46
2021/09/01 11:22:56;;;;;;;9.30;6.40;;;;;;;;;;5087992;28;20178;-46
2021/09/01 11:25:25;;;;;;;6.63;5.90;;;;;;;;;;5078420;28;20171;-46
2021/09/01 11:27:57;;;;;;;7.35;6.25;;;;;;;;;;5077545;28;20189;-46
2021/09/01 11:30:31;;;;;;;8.55;6.38;;;;;;;;;;5096161;28;20580;-46
2021/09/01 11:32:57;;;;;;;6.97;5.95;;;;;;;;;;5090172;28;20542;-46
2021/09/01 11:35:25;;;;;;;6.13;5.53;;;;;;;;;;5078285;28;20182;-46
2021/09/01 11:37:59;;;;;;;6.63;5.97;;;;;;;;;;5084469;28;20178;-46
2021/09/01 11:40:35;;;;;;;7.05;6.28;;;;;;;;;;5096152;28;20218;-46
2021/09/01 11:43:01;;;;;;;7.72;5.55;;;;;;;;;;5101345;28;20172;-47
2021/09/01 11:45:27;;;;;;;6.75;5.78;;;;;;;;;;5098250;28;20174;-46
2021/09/01 11:47:59;;;;;;;6.78;5.85;;;;;;;;;;5072103;28;20181;-47
2021/09/01 11:50:25;;;;;;;7.60;5.88;;;;;;;;;;5077937;28;20205;-47
2021/09/01 11:52:54;;;;;;;7.50;5.55;;;;;;;;;;5078658;28;20194;-47
2021/09/01 11:55:24;;;;;;;6.40;5.72;;;;;;;;;;5077824;28;20170;-46
2021/09/01 11:57:50;;;;;;;5.97;5.05;;;;;;;;;;5089503;28;20252;-46
2021/09/01 12:00:16;;;;;;;6.07;5.32;;;;;;;;;;5097848;28;20257;-47
2021/09/01 12:02:43;;;;;;;6.95;5.20;;;;;;;;;;5092005;28;20504;-46
2021/09/01 12:05:09;;;;;;;5.68;5.18;;;;;;;;;;5084353;28;20170;-46
2021/09/01 12:07:37;;;;;;;7.05;5.60;;;;;;;;;;5096818;28;20182;-46
2021/09/01 12:10:07;;;;;;;5.57;5.00;;;;;;;;;;5094482;28;20283;-46
2021/09/01 12:12:34;;;;;;;6.03;5.43;;;;;;;;;;5091339;28;20187;-46
2021/09/01 12:15:07;;;;;;;5.97;5.38;;;;;;;;;;5078586;28;20227;-46
2021/09/01 12:17:33;;;;;;;5.80;5.00;;;;;;;;;;5076921;28;20175;-46
2021/09/01 12:19:59;;;;;;;6.35;5.18;;;;;;;;;;5077133;28;20563;-46
2021/09/01 12:22:28;;;;;;;5.85;5.25;;;;;;;;;;5079298;28;20178;-46
2021/09/01 12:25:00;;;;;;;5.95;4.82;;;;;;;;;;5096603;28;20223;-46
2021/09/01 12:27:26;;;;;;;5.50;5.00;;;;;;;;;;5089095;28;20196;-46
2021/09/01 12:29:52;;;;;;;5.72;5.13;;;;;;;;;;5097025;28;20288;-46
2021/09/01 12:32:19;;;;;;;5.90;5.38;;;;;;;;;;5094751;28;20178;-46
2021/09/01 12:34:51;;;;;;;5.68;4.88;;;;;;;;;;5083365;28;20181;-46
2021/09/01 12:37:25;;;;;;;6.70;4.38;;;;;;;;;;5096462;28;20324;-46
2021/09/01 12:39:52;;;;;;;5.75;5.20;;;;;;;;;;5102550;28;20480;-46
2021/09/01 12:42:22;;;;;;;5.10;4.60;;;;;;;;;;5096784;28;20193;-46
2021/09/01 12:44:52;;;;;;;5.50;5.00;;;;;;;;;;5096260;28;20496;-46
2021/09/01 12:47:18;;;;;;;5.60;4.22;;;;;;;;;;5094318;28;20182;-46
2021/09/01 12:49:48;;;;;;;5.15;4.65;;;;;;;;;;5096507;28;20462;-46
2021/09/01 12:52:15;;;;;;;5.68;5.00;;;;;;;;;;5094812;28;20210;-46
2021/09/01 12:54:41;;;;;;;4.93;4.43;;;;;;;;;;5095169;28;20182;-46
2021/09/01 12:57:07;;;;;;;5.85;4.55;;;;;;;;;;5094294;28;20178;-47
2021/09/01 12:59:35;;;;;;;5.28;4.78;;;;;;;;;;5074821;28;20186;-47
2021/09/01 13:02:01;;;;;;;5.85;4.82;;;;;;;;;;5074921;28;20706;-46
2021/09/01 13:04:28;;;;;;;5.68;5.07;;;;;;;;;;5095271;28;20166;-46
2021/09/01 13:06:54;;;;;;;5.13;4.63;;;;;;;;;;5094044;28;20261;-46
2021/09/01 13:09:21;;;;;;;5.70;4.80;;;;;;;;;;5094249;28;20205;-46
2021/09/01 13:11:47;;;;;;;5.93;5.00;;;;;;;;;;5095265;28;20158;-47
2021/09/01 13:14:13;;;;;;;5.75;4.82;;;;;;;;;;5094747;28;20545;-46
2021/09/01 13:16:39;;;;;;;5.10;4.53;;;;;;;;;;5096670;28;20169;-46
2021/09/01 13:19:05;;;;;;;5.05;4.38;;;;;;;;;;5078239;28;20178;-46
2021/09/01 13:21:31;;;;;;;6.05;4.75;;;;;;;;;;5095713;28;20185;-47
2021/09/01 13:23:57;;;;;;;5.38;4.85;;;;;;;;;;5096442;28;20211;-48
2021/09/01 13:26:23;;;;;;;5.15;4.63;;;;;;;;;;5096328;28;20170;-46
2021/09/01 13:28:49;;;;;;;6.55;4.68;;;;;;;;;;5095002;28;20573;-47
2021/09/01 13:31:15;;;;;;;5.10;4.60;;;;;;;;;;5094509;28;20546;-47
2021/09/01 13:33:41;;;;;;;5.18;4.68;;;;;;;;;;5081729;28;20181;-46
2021/09/01 13:36:07;;;;;;;7.47;4.70;;;;;;;;;;5090419;28;20571;-47
2021/09/01 13:38:33;;;;;;;8.77;4.72;;;;;;;;;;5099934;28;20214;-47
2021/09/01 13:41:00;;;;;;;5.72;4.70;;;;;;;;;;5106351;28;20535;-47
2021/09/01 13:43:26;;;;;;;6.00;4.43;;;;;;;;;;5083172;28;20601;-46
2021/09/01 13:45:52;;;;;;;5.35;4.15;;;;;;;;;;5073535;28;20182;-47
2021/09/01 13:48:18;;;;;;;6.63;4.50;;;;;;;;;;5074212;28;20236;-47
2021/09/01 13:50:44;;;;;;;7.55;4.13;;;;;;;;;;5094484;28;20270;-47
2021/09/01 13:53:13;;;;;;;5.95;4.28;;;;;;;;;;5082478;28;20275;-47
2021/09/01 13:55:39;;;;;;;5.93;4.22;;;;;;;;;;5078344;28;20441;-47
2021/09/01 13:58:05;;;;;;;5.97;4.65;;;;;;;;;;5095158;28;20162;-47
2021/09/01 14:00:32;;;;;;;5.13;4.32;;;;;;;;;;5095759;28;20174;-47
2021/09/01 14:02:58;;;;;;;8.43;4.10;;;;;;;;;;5095129;28;20243;-47
2021/09/01 14:05:24;;;;;;;5.55;4.88;;;;;;;;;;5095550;28;20173;-47
2021/09/01 14:07:50;;;;;;;6.20;4.05;;;;;;;;;;5087514;28;20262;-47
2021/09/01 14:10:16;;;;;;;4.45;3.95;;;;;;;;;;5074000;28;20536;-47
2021/09/01 14:12:43;;;;;;;6.85;3.83;;;;;;;;;;5075312;28;20170;-47
2021/09/01 14:15:10;;;;;;;6.18;4.18;;;;;;;;;;5075199;28;20250;-47
2021/09/01 14:17:36;;;;;;;6.05;4.32;;;;;;;;;;5079166;28;20184;-47
2021/09/01 14:20:03;;;;;;;5.50;3.80;;;;;;;;;;5076240;28;20182;-47
2021/09/01 14:22:29;;;;;;;4.90;3.70;;;;;;;;;;5074966;28;20201;-47
2021/09/01 14:24:55;;;;;;;4.47;3.88;;;;;;;;;;5086105;28;20178;-47
2021/09/01 14:27:21;;;;;;;4.15;3.70;;;;;;;;;;5094531;28;20243;-47
2021/09/01 14:29:47;;;;;;;5.65;4.00;;;;;;;;;;5095061;28;20201;-47
2021/09/01 14:32:13;;;;;;;4.53;3.83;;;;;;;;;;5092358;28;20438;-47
2021/09/01 14:34:39;;;;;;;5.47;4.03;;;;;;;;;;5080671;28;20173;-47
2021/09/01 14:37:05;;;;;;;4.22;3.80;;;;;;;;;;5094319;28;20162;-47
2021/09/01 14:39:31;;;;;;;5.38;4.32;;;;;;;;;;5103037;28;20178;-47
2021/09/01 14:41:57;;;;;;;4.32;3.92;;;;;;;;;;5104221;28;20198;-47
2021/09/01 14:44:23;;;;;;;6.05;4.07;;;;;;;;;;5094740;28;20545;-47